Time;durP1;ratioP1;P1;durP2;ratioP2;P2;SDS_P1;SDS_P2;PMS_P1;PMS_P2;Temp;Humidity;BMP_temperature;BMP_pressure;BME280_temperature;BME280_humidity;BME280_pressure;Samples;Min_cycle;Max_cycle;Signal;HPM_P1;HPM_P2
2021/08/20 00:02:09;;;;;;;41.67;31.83;;;;;;;;;;5043495;28;20089;-89
2021/08/20 00:04:36;;;;;;;38.20;28.08;;;;;;;;;;5043225;28;20040;-93
2021/08/20 00:07:04;;;;;;;37.17;29.35;;;;;;;;;;5046247;28;20014;-92
2021/08/20 00:09:33;;;;;;;38.35;30.67;;;;;;;;;;5445099;23;20055;-92
2021/08/20 00:11:58;;;;;;;47.17;32.85;;;;;;;;;;4969025;28;20046;-93
2021/08/20 00:14:24;;;;;;;39.67;29.45;;;;;;;;;;4986674;28;20458;-92
2021/08/20 00:16:49;;;;;;;35.63;28.80;;;;;;;;;;4985555;28;20023;-92
2021/08/20 00:19:15;;;;;;;34.17;27.52;;;;;;;;;;4982631;28;20031;-92
2021/08/20 00:21:40;;;;;;;38.88;29.02;;;;;;;;;;4987457;28;20030;-90
2021/08/20 00:24:06;;;;;;;40.33;30.95;;;;;;;;;;5004040;28;20039;-91
2021/08/20 00:26:32;;;;;;;37.85;29.17;;;;;;;;;;4986731;28;20039;-90
2021/08/20 00:28:58;;;;;;;28.52;23.65;;;;;;;;;;4983116;28;20042;-92
2021/08/20 00:31:23;;;;;;;30.67;24.50;;;;;;;;;;5002672;28;20007;-89
2021/08/20 00:33:49;;;;;;;35.83;25.58;;;;;;;;;;4996405;28;20114;-91
2021/08/20 00:36:16;;;;;;;31.95;24.90;;;;;;;;;;4997360;28;20026;-91
2021/08/20 00:38:41;;;;;;;31.70;26.52;;;;;;;;;;4997747;28;20057;-93
2021/08/20 00:41:12;;;;;;;37.47;28.92;;;;;;;;;;4990321;28;20027;-92
2021/08/20 00:43:38;;;;;;;40.65;29.52;;;;;;;;;;5003263;28;20121;-93
2021/08/20 00:46:04;;;;;;;45.25;31.27;;;;;;;;;;4987125;28;20026;-92
2021/08/20 00:48:29;;;;;;;41.03;30.95;;;;;;;;;;5000347;28;20077;-92
2021/08/20 00:51:02;;;;;;;46.67;30.95;;;;;;;;;;4986194;28;20019;-92
2021/08/20 00:53:27;;;;;;;40.03;28.33;;;;;;;;;;5001745;28;20027;-93
2021/08/20 00:55:54;;;;;;;36.85;29.92;;;;;;;;;;5001688;28;20030;-89
2021/08/20 00:58:19;;;;;;;37.88;27.80;;;;;;;;;;4991612;28;20437;-87
2021/08/20 01:00:46;;;;;;;38.70;28.83;;;;;;;;;;4989610;28;20031;-86
2021/08/20 01:03:11;;;;;;;34.33;27.95;;;;;;;;;;4989636;28;20034;-91
2021/08/20 01:05:41;;;;;;;37.85;29.20;;;;;;;;;;5013417;28;20011;-92
2021/08/20 01:08:06;;;;;;;41.80;27.60;;;;;;;;;;4990183;28;20046;-90
2021/08/20 01:10:32;;;;;;;42.13;29.13;;;;;;;;;;4996033;28;20059;-90
2021/08/20 01:12:57;;;;;;;38.17;29.48;;;;;;;;;;4996776;28;20019;-89
2021/08/20 01:15:23;;;;;;;32.95;25.17;;;;;;;;;;5012451;28;20022;-91
2021/08/20 01:17:50;;;;;;;43.15;29.13;;;;;;;;;;5012679;28;20090;-91
2021/08/20 01:20:16;;;;;;;38.38;26.92;;;;;;;;;;4996741;28;20050;-90
2021/08/20 01:22:41;;;;;;;38.30;28.83;;;;;;;;;;5012802;28;20015;-90
2021/08/20 01:25:10;;;;;;;39.33;28.77;;;;;;;;;;5012875;28;20026;-91
2021/08/20 01:27:36;;;;;;;37.70;28.08;;;;;;;;;;5013043;28;20007;-91
2021/08/20 01:30:03;;;;;;;39.90;29.45;;;;;;;;;;5004048;28;20115;-91
2021/08/20 01:32:28;;;;;;;36.17;27.55;;;;;;;;;;4992859;28;20042;-91
2021/08/20 01:34:54;;;;;;;44.80;28.08;;;;;;;;;;5002873;28;20031;-92
2021/08/20 01:37:19;;;;;;;43.35;29.33;;;;;;;;;;4997188;28;20043;-91
2021/08/20 01:39:45;;;;;;;40.92;29.88;;;;;;;;;;4997531;28;20070;-93
2021/08/20 01:42:10;;;;;;;39.83;30.05;;;;;;;;;;5012606;28;20023;-92
2021/08/20 01:44:36;;;;;;;40.40;28.10;;;;;;;;;;5013509;28;20053;-90
2021/08/20 01:47:02;;;;;;;38.05;26.52;;;;;;;;;;5000248;28;20026;-91
2021/08/20 01:49:27;;;;;;;37.55;27.70;;;;;;;;;;5012616;28;20023;-91
2021/08/20 01:51:53;;;;;;;36.22;26.95;;;;;;;;;;5007149;28;20046;-87
2021/08/20 01:54:18;;;;;;;34.00;27.13;;;;;;;;;;4991178;28;20181;-87
2021/08/20 01:56:44;;;;;;;42.22;27.40;;;;;;;;;;4993036;28;20034;-90
2021/08/20 01:59:09;;;;;;;36.45;26.73;;;;;;;;;;5014318;28;20034;-90
2021/08/20 02:01:35;;;;;;;35.08;26.48;;;;;;;;;;5014107;28;20003;-89
2021/08/20 02:04:01;;;;;;;36.97;27.35;;;;;;;;;;4998719;28;20030;-91
2021/08/20 02:06:27;;;;;;;38.92;25.15;;;;;;;;;;4999991;28;20042;-90
2021/08/20 02:08:52;;;;;;;34.10;23.48;;;;;;;;;;4998928;28;20027;-90
2021/08/20 02:11:18;;;;;;;38.17;26.40;;;;;;;;;;5015702;28;20027;-91
2021/08/20 02:13:44;;;;;;;37.47;25.25;;;;;;;;;;5015871;28;20018;-89
2021/08/20 02:16:10;;;;;;;36.92;25.63;;;;;;;;;;5000390;28;20037;-89
2021/08/20 02:18:35;;;;;;;30.83;23.58;;;;;;;;;;5016339;28;20091;-88
2021/08/20 02:21:01;;;;;;;30.90;23.23;;;;;;;;;;5013023;28;20023;-90
2021/08/20 02:23:26;;;;;;;30.90;23.65;;;;;;;;;;4992133;28;20079;-88
2021/08/20 02:25:52;;;;;;;31.42;22.75;;;;;;;;;;5009910;28;20019;-83
2021/08/20 02:28:17;;;;;;;34.35;22.80;;;;;;;;;;4990066;28;20027;-87
2021/08/20 02:30:43;;;;;;;28.55;21.10;;;;;;;;;;5000196;28;20031;-87
2021/08/20 02:33:09;;;;;;;31.17;22.90;;;;;;;;;;5014319;28;20015;-89
2021/08/20 02:35:34;;;;;;;31.13;21.67;;;;;;;;;;5003485;28;20037;-88
2021/08/20 02:38:00;;;;;;;23.80;19.58;;;;;;;;;;4982555;28;20023;-89
2021/08/20 02:40:25;;;;;;;24.92;20.50;;;;;;;;;;4994678;28;20058;-89
2021/08/20 02:42:51;;;;;;;24.55;19.10;;;;;;;;;;4999250;28;20041;-90
2021/08/20 02:45:16;;;;;;;26.95;19.58;;;;;;;;;;5014761;28;20095;-90
2021/08/20 02:47:42;;;;;;;26.55;19.27;;;;;;;;;;5014750;28;20006;-90
2021/08/20 02:50:08;;;;;;;25.88;18.42;;;;;;;;;;5013581;28;20031;-91
2021/08/20 02:52:33;;;;;;;25.73;17.15;;;;;;;;;;5004237;28;20059;-90
2021/08/20 02:54:59;;;;;;;24.02;18.42;;;;;;;;;;4979556;28;20027;-89
2021/08/20 02:57:28;;;;;;;23.20;16.65;;;;;;;;;;4995089;28;20078;-90
2021/08/20 02:59:54;;;;;;;21.05;17.08;;;;;;;;;;4995430;28;20031;-90
2021/08/20 03:02:19;;;;;;;24.55;16.05;;;;;;;;;;4988312;28;20015;-90
2021/08/20 03:04:45;;;;;;;18.90;15.32;;;;;;;;;;4975927;29;20030;-89
2021/08/20 03:07:10;;;;;;;23.55;15.52;;;;;;;;;;4977186;28;20075;-91
2021/08/20 03:09:36;;;;;;;22.45;14.95;;;;;;;;;;5005542;28;20066;-91
2021/08/20 03:12:01;;;;;;;18.33;14.00;;;;;;;;;;5001280;28;20012;-92
2021/08/20 03:14:28;;;;;;;16.13;12.95;;;;;;;;;;5003514;28;20050;-93
2021/08/20 03:16:54;;;;;;;20.20;13.20;;;;;;;;;;5005453;28;20031;-91
2021/08/20 03:19:19;;;;;;;20.83;13.95;;;;;;;;;;4996329;28;20106;-93
2021/08/20 03:21:45;;;;;;;17.38;12.85;;;;;;;;;;4992120;28;20022;-91
2021/08/20 03:24:10;;;;;;;13.98;12.00;;;;;;;;;;4995127;28;20011;-92
2021/08/20 03:26:36;;;;;;;14.25;12.20;;;;;;;;;;5010524;28;20026;-89
2021/08/20 03:29:02;;;;;;;15.52;11.40;;;;;;;;;;5013838;28;20026;-90
2021/08/20 03:31:27;;;;;;;13.88;11.27;;;;;;;;;;4997619;28;20034;-90
2021/08/20 03:33:54;;;;;;;13.15;11.02;;;;;;;;;;5012688;28;20026;-90
2021/08/20 03:36:21;;;;;;;14.60;10.65;;;;;;;;;;5002063;28;20039;-89
2021/08/20 03:38:47;;;;;;;15.23;11.18;;;;;;;;;;4975330;28;20049;-90
2021/08/20 03:41:12;;;;;;;32.75;12.05;;;;;;;;;;4978270;28;20047;-91
2021/08/20 03:43:38;;;;;;;12.90;10.25;;;;;;;;;;4989919;28;20027;-89
2021/08/20 03:46:06;;;;;;;12.00;10.43;;;;;;;;;;4975841;28;20039;-90
2021/08/20 03:48:33;;;;;;;15.50;11.65;;;;;;;;;;4990962;28;20066;-90
2021/08/20 03:50:59;;;;;;;14.50;10.55;;;;;;;;;;5000636;28;20177;-91
2021/08/20 03:53:24;;;;;;;11.75;9.98;;;;;;;;;;4995672;28;20059;-90
2021/08/20 03:55:50;;;;;;;13.25;10.10;;;;;;;;;;4994466;28;20092;-92
2021/08/20 03:58:16;;;;;;;17.98;10.23;;;;;;;;;;5005060;28;20042;-92
2021/08/20 04:00:45;;;;;;;14.73;9.90;;;;;;;;;;5007049;28;20142;-92
2021/08/20 04:03:10;;;;;;;16.20;9.80;;;;;;;;;;5005081;28;20042;-92
2021/08/20 04:05:37;;;;;;;12.52;9.35;;;;;;;;;;4989984;28;20414;-90
2021/08/20 04:08:03;;;;;;;14.05;9.25;;;;;;;;;;5004282;28;20054;-89
2021/08/20 04:10:28;;;;;;;11.32;8.55;;;;;;;;;;4988324;28;20054;-89
2021/08/20 04:12:54;;;;;;;13.32;9.48;;;;;;;;;;4982640;28;20031;-87
2021/08/20 04:15:19;;;;;;;11.55;8.80;;;;;;;;;;5000379;28;20086;-90
2021/08/20 04:17:45;;;;;;;12.73;9.45;;;;;;;;;;5001846;28;20039;-90
2021/08/20 04:20:10;;;;;;;11.38;9.07;;;;;;;;;;5002462;28;20129;-91
2021/08/20 04:22:36;;;;;;;11.35;9.23;;;;;;;;;;5001412;28;20026;-92
2021/08/20 04:25:02;;;;;;;12.65;9.52;;;;;;;;;;5001884;28;20034;-90
2021/08/20 04:27:28;;;;;;;17.75;10.52;;;;;;;;;;4987867;28;20090;-91
2021/08/20 04:29:53;;;;;;;15.73;9.10;;;;;;;;;;4995351;28;20086;-90
2021/08/20 04:32:19;;;;;;;14.23;9.90;;;;;;;;;;5012642;28;20015;-88
2021/08/20 04:34:44;;;;;;;11.15;9.77;;;;;;;;;;5010365;28;20067;-91
2021/08/20 04:37:14;;;;;;;15.50;9.73;;;;;;;;;;5003641;28;20027;-93
2021/08/20 04:39:39;;;;;;;16.73;10.65;;;;;;;;;;4987725;28;20039;-91
2021/08/20 04:42:05;;;;;;;15.73;11.27;;;;;;;;;;5003175;28;20022;-92
2021/08/20 04:44:30;;;;;;;15.07;11.32;;;;;;;;;;4987797;28;20046;-93
2021/08/20 04:46:59;;;;;;;13.90;10.80;;;;;;;;;;4987580;28;20059;-93
2021/08/20 04:49:24;;;;;;;17.15;10.85;;;;;;;;;;4985212;28;20513;-93
2021/08/20 04:51:51;;;;;;;20.13;10.93;;;;;;;;;;4975548;28;20043;-92
2021/08/20 04:54:17;;;;;;;18.98;11.82;;;;;;;;;;4971978;28;20105;-91
2021/08/20 04:56:42;;;;;;;24.30;12.05;;;;;;;;;;4992397;28;20027;-91
2021/08/20 04:59:08;;;;;;;68.82;19.20;;;;;;;;;;4987622;28;20073;-91
2021/08/20 05:01:35;;;;;;;16.23;11.45;;;;;;;;;;4987917;28;20042;-93
2021/08/20 05:04:02;;;;;;;28.33;11.98;;;;;;;;;;4992602;28;20037;-92
2021/08/20 05:06:27;;;;;;;14.25;10.85;;;;;;;;;;4996659;28;20031;-92
2021/08/20 05:08:53;;;;;;;14.65;11.90;;;;;;;;;;5007653;28;20046;-92
2021/08/20 05:11:18;;;;;;;15.07;11.93;;;;;;;;;;4974520;28;20026;-94
2021/08/20 05:13:44;;;;;;;14.10;10.68;;;;;;;;;;5000920;28;20034;-92
2021/08/20 05:16:10;;;;;;;18.15;11.75;;;;;;;;;;5013169;28;20035;-92
2021/08/20 05:18:35;;;;;;;16.23;12.50;;;;;;;;;;5003854;28;20058;-90
2021/08/20 05:21:01;;;;;;;16.05;12.50;;;;;;;;;;4996372;28;20031;-91
2021/08/20 05:23:26;;;;;;;17.33;13.00;;;;;;;;;;5006945;28;20098;-94
2021/08/20 05:25:52;;;;;;;14.40;11.20;;;;;;;;;;5002795;28;20039;-90
2021/08/20 05:28:21;;;;;;;15.73;11.65;;;;;;;;;;4983032;28;20026;-92
2021/08/20 05:30:48;;;;;;;15.30;11.30;;;;;;;;;;4970394;28;20042;-92
2021/08/20 05:33:14;;;;;;;16.92;12.55;;;;;;;;;;4970202;29;20138;-93
2021/08/20 05:35:40;;;;;;;13.50;11.25;;;;;;;;;;4969723;29;20034;-91
2021/08/20 05:38:05;;;;;;;19.13;11.93;;;;;;;;;;4969874;29;20043;-92
2021/08/20 05:40:32;;;;;;;16.55;12.50;;;;;;;;;;4983039;28;20034;-92
2021/08/20 05:42:58;;;;;;;21.42;12.10;;;;;;;;;;4995552;28;20038;-92
2021/08/20 05:45:24;;;;;;;14.40;11.10;;;;;;;;;;4993405;28;20039;-90
2021/08/20 05:47:49;;;;;;;21.20;11.68;;;;;;;;;;4983377;28;20139;-92
2021/08/20 05:50:15;;;;;;;29.45;12.80;;;;;;;;;;4984855;28;20024;-91
2021/08/20 05:52:40;;;;;;;16.20;12.13;;;;;;;;;;4997890;28;20007;-91
2021/08/20 05:55:06;;;;;;;23.50;12.68;;;;;;;;;;4984546;28;20062;-91
2021/08/20 05:57:32;;;;;;;18.55;11.70;;;;;;;;;;4967197;28;20031;-92
2021/08/20 05:59:58;;;;;;;18.45;10.77;;;;;;;;;;4972961;28;20086;-93
2021/08/20 06:02:23;;;;;;;17.27;12.50;;;;;;;;;;4986663;28;20038;-92
2021/08/20 06:04:49;;;;;;;13.00;11.70;;;;;;;;;;5002972;28;20031;-91
2021/08/20 06:07:14;;;;;;;18.55;12.00;;;;;;;;;;5004303;28;20497;-92
2021/08/20 06:09:40;;;;;;;25.08;12.13;;;;;;;;;;4990997;28;20054;-92
2021/08/20 06:12:06;;;;;;;18.77;12.57;;;;;;;;;;5006521;28;20034;-92
2021/08/20 06:14:33;;;;;;;16.95;11.80;;;;;;;;;;5002650;28;20023;-93
2021/08/20 06:16:59;;;;;;;19.13;12.07;;;;;;;;;;5011118;28;20086;-93
2021/08/20 06:19:26;;;;;;;16.60;12.10;;;;;;;;;;4990181;28;20039;-89
2021/08/20 06:21:52;;;;;;;18.77;11.85;;;;;;;;;;4987120;28;20031;-87
2021/08/20 06:24:17;;;;;;;14.77;11.27;;;;;;;;;;4966381;28;20030;-90
2021/08/20 06:26:46;;;;;;;24.08;11.73;;;;;;;;;;4982477;28;20337;-91
2021/08/20 06:29:11;;;;;;;14.18;10.93;;;;;;;;;;4993222;28;20023;-89
2021/08/20 06:31:37;;;;;;;15.55;11.00;;;;;;;;;;4987039;28;20133;-90
2021/08/20 06:34:02;;;;;;;16.52;10.30;;;;;;;;;;5013142;28;20061;-91
2021/08/20 06:36:29;;;;;;;16.30;10.52;;;;;;;;;;4994204;28;20031;-91
2021/08/20 06:38:56;;;;;;;12.80;10.63;;;;;;;;;;4995908;28;20023;-90
2021/08/20 06:41:22;;;;;;;11.48;9.77;;;;;;;;;;4978356;28;20039;-89
2021/08/20 06:43:47;;;;;;;10.25;8.68;;;;;;;;;;4997053;28;20118;-90
2021/08/20 06:46:13;;;;;;;13.10;8.73;;;;;;;;;;4982692;28;20098;-89
2021/08/20 06:48:38;;;;;;;12.55;8.20;;;;;;;;;;4998465;28;20030;-91
2021/08/20 06:51:04;;;;;;;11.32;7.50;;;;;;;;;;4985697;28;20026;-90
2021/08/20 06:53:29;;;;;;;11.43;7.38;;;;;;;;;;4972793;28;20038;-94
2021/08/20 06:55:55;;;;;;;11.27;8.60;;;;;;;;;;4979949;28;20026;-88
2021/08/20 06:58:20;;;;;;;12.50;8.07;;;;;;;;;;4964800;28;20074;-88
2021/08/20 07:00:46;;;;;;;16.30;7.80;;;;;;;;;;4971377;28;20031;-86
2021/08/20 07:03:11;;;;;;;8.45;6.90;;;;;;;;;;4966126;28;20030;-93
2021/08/20 07:05:37;;;;;;;14.35;7.50;;;;;;;;;;4973190;28;20027;-89
2021/08/20 07:08:05;;;;;;;8.70;6.75;;;;;;;;;;5003500;28;20041;-92
2021/08/20 07:10:31;;;;;;;10.45;6.88;;;;;;;;;;5005727;28;20050;-89
2021/08/20 07:12:56;;;;;;;14.98;7.43;;;;;;;;;;5001300;28;20033;-90
2021/08/20 07:15:22;;;;;;;12.35;6.57;;;;;;;;;;5004466;28;20031;-93
2021/08/20 07:17:49;;;;;;;8.70;6.28;;;;;;;;;;4993564;28;20058;-93
2021/08/20 07:20:14;;;;;;;11.30;6.07;;;;;;;;;;5003364;28;20023;-91
2021/08/20 07:22:40;;;;;;;8.52;6.07;;;;;;;;;;4999336;28;20027;-91
2021/08/20 07:25:05;;;;;;;8.05;6.13;;;;;;;;;;4992060;28;20037;-91
2021/08/20 07:27:31;;;;;;;11.75;6.50;;;;;;;;;;4988412;28;20034;-91
2021/08/20 07:29:57;;;;;;;11.82;6.40;;;;;;;;;;4986233;28;20572;-90
2021/08/20 07:32:22;;;;;;;11.02;6.00;;;;;;;;;;4983915;28;20037;-92
2021/08/20 07:34:48;;;;;;;7.63;5.38;;;;;;;;;;4982309;28;20033;-92
2021/08/20 07:37:13;;;;;;;27.98;7.55;;;;;;;;;;4983612;28;20019;-91
2021/08/20 07:39:40;;;;;;;15.93;5.07;;;;;;;;;;4983949;28;20035;-91
2021/08/20 07:42:06;;;;;;;8.48;5.07;;;;;;;;;;4975708;28;20040;-92
2021/08/20 07:44:32;;;;;;;8.00;5.32;;;;;;;;;;4980019;28;20034;-93
2021/08/20 07:46:57;;;;;;;25.15;8.30;;;;;;;;;;5003399;28;20414;-94
2021/08/20 07:49:23;;;;;;;11.63;5.50;;;;;;;;;;4985813;28;20026;-91
2021/08/20 07:51:49;;;;;;;10.50;5.82;;;;;;;;;;5003143;28;20413;-92
2021/08/20 07:54:14;;;;;;;8.63;5.57;;;;;;;;;;4990841;28;20031;-91
2021/08/20 07:56:40;;;;;;;10.45;5.70;;;;;;;;;;4983895;28;20043;-92
2021/08/20 07:59:36;;;;;;;7.40;4.80;;;;;;;;;;5087305;23;20089;-91
2021/08/20 08:02:03;;;;;;;13.43;5.95;;;;;;;;;;5015802;28;20022;-90
2021/08/20 08:07:29;;;;;;;24.55;6.88;;;;;;;;;;4581844;26;20035;-91
2021/08/20 08:10:01;;;;;;;9.85;5.22;;;;;;;;;;4998606;28;20046;-91
2021/08/20 08:12:26;;;;;;;10.55;5.07;;;;;;;;;;4995737;28;20047;-90
2021/08/20 08:14:52;;;;;;;12.52;5.55;;;;;;;;;;5010167;28;20046;-91
2021/08/20 08:17:17;;;;;;;12.38;5.65;;;;;;;;;;4994458;28;20078;-91
2021/08/20 08:19:43;;;;;;;24.35;6.60;;;;;;;;;;4991896;28;20042;-92
2021/08/20 08:22:08;;;;;;;14.40;5.63;;;;;;;;;;4989957;28;20034;-90
2021/08/20 08:24:34;;;;;;;18.15;6.13;;;;;;;;;;5000529;28;20030;-91
2021/08/20 08:26:59;;;;;;;20.80;6.50;;;;;;;;;;4983633;28;20112;-89
2021/08/20 08:29:25;;;;;;;23.05;6.40;;;;;;;;;;4983901;28;20089;-91
2021/08/20 08:31:52;;;;;;;22.17;7.22;;;;;;;;;;4980421;28;20531;-89
2021/08/20 08:34:18;;;;;;;11.98;5.88;;;;;;;;;;4997710;28;20031;-89
2021/08/20 08:36:43;;;;;;;10.38;5.30;;;;;;;;;;4988304;28;20037;-89
2021/08/20 08:39:09;;;;;;;15.65;5.95;;;;;;;;;;4978910;28;20034;-90
2021/08/20 08:41:34;;;;;;;21.63;6.18;;;;;;;;;;5013381;28;20046;-89
2021/08/20 08:44:00;;;;;;;18.08;6.38;;;;;;;;;;5010804;28;20038;-89
2021/08/20 08:46:27;;;;;;;14.02;5.68;;;;;;;;;;5001841;28;20094;-89
2021/08/20 08:48:52;;;;;;;8.80;5.35;;;;;;;;;;5001725;28;20027;-91
2021/08/20 08:51:19;;;;;;;12.23;5.78;;;;;;;;;;5026883;28;20034;-89
2021/08/20 08:53:47;;;;;;;8.13;5.47;;;;;;;;;;5010089;28;20027;-86
2021/08/20 08:56:16;;;;;;;13.95;6.07;;;;;;;;;;5019695;28;20023;-90
2021/08/20 08:58:42;;;;;;;9.35;5.65;;;;;;;;;;4995548;28;20030;-89
2021/08/20 09:01:27;;;;;;;7.18;5.20;;;;;;;;;;5003899;28;20030;-90
2021/08/20 09:04:28;;;;;;;8.82;5.47;;;;;;;;;;4994739;28;20029;-90
2021/08/20 09:06:56;;;;;;;11.73;5.75;;;;;;;;;;5007082;28;20054;-91
2021/08/20 09:09:22;;;;;;;51.45;8.52;;;;;;;;;;4998122;28;20081;-90
2021/08/20 09:11:51;;;;;;;7.30;5.05;;;;;;;;;;4988644;28;20478;-92
2021/08/20 09:14:17;;;;;;;7.00;5.72;;;;;;;;;;5018657;28;20027;-94
2021/08/20 09:16:44;;;;;;;9.25;5.22;;;;;;;;;;5004853;28;20125;-92
2021/08/20 09:19:14;;;;;;;8.73;5.85;;;;;;;;;;5020244;28;20038;-90
2021/08/20 09:21:41;;;;;;;10.05;5.32;;;;;;;;;;5019588;28;20436;-90
2021/08/20 09:24:25;;;;;;;7.07;5.30;;;;;;;;;;5003157;28;20098;-91
2021/08/20 09:26:51;;;;;;;8.48;5.47;;;;;;;;;;5020486;28;20126;-92
2021/08/20 09:29:16;;;;;;;7.03;5.63;;;;;;;;;;5009751;28;20030;-85
2021/08/20 09:31:52;;;;;;;8.05;6.10;;;;;;;;;;4975791;28;20038;-85
2021/08/20 09:34:17;;;;;;;9.32;5.38;;;;;;;;;;5001584;28;20030;-87
2021/08/20 09:36:43;;;;;;;10.30;5.78;;;;;;;;;;4999927;28;20511;-89
2021/08/20 09:39:08;;;;;;;11.77;6.13;;;;;;;;;;5017243;28;20054;-83
2021/08/20 09:41:36;;;;;;;8.38;5.82;;;;;;;;;;4973673;28;20512;-85
2021/08/20 09:44:06;;;;;;;6.47;5.32;;;;;;;;;;4973665;28;20034;-86
2021/08/20 09:46:41;;;;;;;10.18;5.85;;;;;;;;;;4981727;28;20058;-86
2021/08/20 09:49:07;;;;;;;9.10;5.68;;;;;;;;;;4972563;28;20038;-85
2021/08/20 09:51:38;;;;;;;12.00;5.85;;;;;;;;;;4976695;28;20417;-83
2021/08/20 09:54:08;;;;;;;8.85;6.00;;;;;;;;;;4981584;28;20045;-85
2021/08/20 09:56:36;;;;;;;15.68;6.72;;;;;;;;;;4977116;28;20045;-85
2021/08/20 09:59:03;;;;;;;17.60;7.70;;;;;;;;;;4977180;28;20042;-84
2021/08/20 10:01:30;;;;;;;12.43;6.60;;;;;;;;;;4972856;28;20030;-85
2021/08/20 10:03:59;;;;;;;8.75;5.80;;;;;;;;;;4973354;28;20026;-85
2021/08/20 10:06:30;;;;;;;12.38;5.88;;;;;;;;;;4978147;28;20550;-78
2021/08/20 10:08:57;;;;;;;7.22;5.47;;;;;;;;;;4995961;28;20068;-80
2021/08/20 10:11:24;;;;;;;11.50;6.90;;;;;;;;;;4991832;28;20026;-81
2021/08/20 10:13:50;;;;;;;11.25;5.68;;;;;;;;;;4979162;28;20035;-82
2021/08/20 10:16:16;;;;;;;7.05;5.45;;;;;;;;;;4991812;28;20166;-81
2021/08/20 10:18:42;;;;;;;12.02;5.53;;;;;;;;;;4976861;28;20040;-83
2021/08/20 10:21:08;;;;;;;8.30;5.10;;;;;;;;;;4977065;28;20030;-81
2021/08/20 10:23:35;;;;;;;9.55;5.30;;;;;;;;;;4975627;28;20034;-81
2021/08/20 10:26:01;;;;;;;12.63;6.57;;;;;;;;;;4976087;28;20045;-82
2021/08/20 10:28:27;;;;;;;13.63;5.90;;;;;;;;;;4976351;28;20061;-82
2021/08/20 10:30:53;;;;;;;12.52;6.35;;;;;;;;;;4977253;28;20023;-83
2021/08/20 10:33:37;;;;;;;9.73;5.13;;;;;;;;;;4977382;28;20114;-82
2021/08/20 10:36:02;;;;;;;6.90;5.00;;;;;;;;;;5006145;28;20034;-82
2021/08/20 10:38:28;;;;;;;11.02;5.72;;;;;;;;;;4979440;28;20037;-83
2021/08/20 10:41:07;;;;;;;7.03;5.82;;;;;;;;;;4994731;28;20539;-83
2021/08/20 10:43:47;;;;;;;8.80;5.30;;;;;;;;;;4984957;28;20041;-83
2021/08/20 10:46:34;;;;;;;9.35;5.35;;;;;;;;;;4975397;28;20546;-83
2021/08/20 10:49:12;;;;;;;7.25;5.45;;;;;;;;;;4975155;28;20526;-82
2021/08/20 10:51:50;;;;;;;11.40;5.93;;;;;;;;;;4974962;28;20031;-82
2021/08/20 10:54:24;;;;;;;12.48;5.65;;;;;;;;;;4976242;28;20042;-82
2021/08/20 10:56:50;;;;;;;12.45;5.82;;;;;;;;;;4975234;28;20100;-81
2021/08/20 10:59:34;;;;;;;9.57;5.72;;;;;;;;;;4974804;28;20149;-82
2021/08/20 11:02:18;;;;;;;8.82;5.60;;;;;;;;;;4989453;28;20350;-82
2021/08/20 11:05:03;;;;;;;10.05;6.63;;;;;;;;;;4974257;28;20035;-83
2021/08/20 11:07:44;;;;;;;22.42;7.97;;;;;;;;;;4994519;28;20042;-82
2021/08/20 11:10:09;;;;;;;9.95;5.53;;;;;;;;;;5018643;28;20023;-82
2021/08/20 11:12:35;;;;;;;10.15;6.43;;;;;;;;;;4975960;28;20477;-83
2021/08/20 11:15:20;;;;;;;17.25;6.97;;;;;;;;;;4974641;28;20038;-82
2021/08/20 11:17:59;;;;;;;8.73;6.63;;;;;;;;;;4974753;28;20035;-83
2021/08/20 11:20:34;;;;;;;12.70;5.97;;;;;;;;;;4975265;28;20030;-82
2021/08/20 11:23:06;;;;;;;11.02;6.25;;;;;;;;;;4990664;28;20113;-83
2021/08/20 11:25:41;;;;;;;9.85;6.47;;;;;;;;;;5008696;28;20076;-82
2021/08/20 11:28:18;;;;;;;11.43;5.68;;;;;;;;;;4994268;28;20041;-82
2021/08/20 11:30:44;;;;;;;8.77;6.43;;;;;;;;;;4981012;28;20031;-83
2021/08/20 11:33:12;;;;;;;12.70;6.05;;;;;;;;;;4975450;28;20113;-83
2021/08/20 11:35:37;;;;;;;9.15;6.65;;;;;;;;;;4974471;28;20039;-83
2021/08/20 11:38:03;;;;;;;8.93;6.53;;;;;;;;;;4974663;28;20452;-82
2021/08/20 11:40:29;;;;;;;8.77;6.07;;;;;;;;;;4974243;28;20031;-81
2021/08/20 11:43:23;;;;;;;9.93;6.45;;;;;;;;;;4974644;28;20080;-83
2021/08/20 11:45:54;;;;;;;11.23;6.75;;;;;;;;;;4956907;28;20167;-82
2021/08/20 11:48:20;;;;;;;10.05;6.60;;;;;;;;;;4974201;28;20038;-83
2021/08/20 11:50:48;;;;;;;8.13;6.40;;;;;;;;;;4973598;28;20026;-82
2021/08/20 11:53:24;;;;;;;13.63;6.13;;;;;;;;;;4973621;28;20034;-82
2021/08/20 11:55:50;;;;;;;13.52;6.80;;;;;;;;;;4974233;28;20034;-83
2021/08/20 11:58:28;;;;;;;11.52;7.55;;;;;;;;;;4974092;28;20166;-83
2021/08/20 12:00:54;;;;;;;8.82;6.65;;;;;;;;;;4972803;28;20030;-83
2021/08/20 12:03:19;;;;;;;11.73;7.68;;;;;;;;;;4973471;28;20405;-83
2021/08/20 12:05:45;;;;;;;11.65;7.75;;;;;;;;;;4977083;28;20058;-83
2021/08/20 12:08:18;;;;;;;8.10;6.82;;;;;;;;;;4993245;28;20110;-82
2021/08/20 12:10:44;;;;;;;21.75;7.90;;;;;;;;;;4972170;28;20063;-81
2021/08/20 12:13:11;;;;;;;9.38;7.55;;;;;;;;;;4974453;28;20041;-81
2021/08/20 12:15:36;;;;;;;15.68;7.65;;;;;;;;;;4989319;28;20037;-82
2021/08/20 12:18:18;;;;;;;11.50;7.55;;;;;;;;;;4974345;28;20125;-81
2021/08/20 12:20:43;;;;;;;15.85;8.40;;;;;;;;;;4976383;28;20445;-81
2021/08/20 12:23:09;;;;;;;14.95;9.70;;;;;;;;;;4977734;28;20030;-82
2021/08/20 12:25:38;;;;;;;9.20;8.27;;;;;;;;;;4974350;28;20030;-81
2021/08/20 12:28:09;;;;;;;12.30;7.95;;;;;;;;;;4973935;28;20054;-81
2021/08/20 12:30:35;;;;;;;16.30;7.97;;;;;;;;;;4974527;28;20038;-80
2021/08/20 12:33:01;;;;;;;10.60;8.20;;;;;;;;;;4975385;28;20069;-82
2021/08/20 12:35:27;;;;;;;27.45;8.63;;;;;;;;;;4974312;28;20027;-81
2021/08/20 12:38:03;;;;;;;11.48;8.57;;;;;;;;;;4974381;28;20041;-82
2021/08/20 12:40:43;;;;;;;11.25;8.07;;;;;;;;;;4975466;28;20026;-82
2021/08/20 12:43:28;;;;;;;15.35;8.57;;;;;;;;;;4976019;28;20049;-81
2021/08/20 12:46:10;;;;;;;12.88;8.55;;;;;;;;;;4976772;28;20450;-81
2021/08/20 12:48:37;;;;;;;11.52;7.68;;;;;;;;;;4974262;28;20393;-80
2021/08/20 12:51:03;;;;;;;29.25;9.77;;;;;;;;;;4973544;28;20366;-81
2021/08/20 12:53:29;;;;;;;11.13;8.32;;;;;;;;;;5004059;28;20496;-82
2021/08/20 12:55:55;;;;;;;14.27;7.97;;;;;;;;;;4972973;28;20090;-81
2021/08/20 12:58:28;;;;;;;9.00;8.05;;;;;;;;;;4973158;28;20477;-81
2021/08/20 13:00:56;;;;;;;17.40;7.93;;;;;;;;;;4973911;28;20027;-81
2021/08/20 13:03:22;;;;;;;11.10;8.25;;;;;;;;;;4974487;28;20098;-82
2021/08/20 13:05:55;;;;;;;19.52;9.38;;;;;;;;;;4973074;28;20078;-81
2021/08/20 13:08:22;;;;;;;15.88;9.88;;;;;;;;;;4973009;28;20034;-82
2021/08/20 13:10:47;;;;;;;15.60;8.82;;;;;;;;;;4988941;28;20097;-81
2021/08/20 13:13:13;;;;;;;17.63;9.32;;;;;;;;;;4989739;28;20030;-79
2021/08/20 13:15:39;;;;;;;14.45;8.55;;;;;;;;;;4973507;28;20030;-81
2021/08/20 13:18:05;;;;;;;13.32;8.63;;;;;;;;;;5006076;28;20057;-80
2021/08/20 13:20:31;;;;;;;13.25;8.07;;;;;;;;;;4972914;28;20031;-80
2021/08/20 13:22:56;;;;;;;18.25;8.75;;;;;;;;;;4972416;28;20035;-82
2021/08/20 13:25:22;;;;;;;10.93;8.02;;;;;;;;;;4986417;28;20069;-80
2021/08/20 13:27:49;;;;;;;10.27;8.52;;;;;;;;;;4976921;28;20439;-80
2021/08/20 13:30:14;;;;;;;31.60;9.95;;;;;;;;;;4974910;28;20042;-81
2021/08/20 13:32:40;;;;;;;12.48;8.63;;;;;;;;;;4971719;28;20402;-81
2021/08/20 13:35:07;;;;;;;15.98;8.60;;;;;;;;;;4972694;28;20030;-80
2021/08/20 13:37:33;;;;;;;16.48;8.80;;;;;;;;;;4980918;28;20040;-81
2021/08/20 13:39:58;;;;;;;22.25;9.10;;;;;;;;;;4989438;28;20039;-80
2021/08/20 13:42:24;;;;;;;16.42;9.57;;;;;;;;;;4977258;28;20114;-80
2021/08/20 13:44:50;;;;;;;13.60;8.32;;;;;;;;;;4976434;28;20037;-81
2021/08/20 13:47:16;;;;;;;24.73;9.80;;;;;;;;;;4988996;28;20026;-81
2021/08/20 13:49:42;;;;;;;16.58;8.98;;;;;;;;;;4978349;28;20042;-81
2021/08/20 13:52:07;;;;;;;13.00;8.27;;;;;;;;;;4976666;28;20437;-81
2021/08/20 13:54:33;;;;;;;12.63;8.23;;;;;;;;;;4977112;28;20023;-80
2021/08/20 13:56:58;;;;;;;11.57;8.80;;;;;;;;;;4981297;28;20093;-80
2021/08/20 13:59:25;;;;;;;21.58;8.98;;;;;;;;;;4988676;28;20073;-81
2021/08/20 14:01:51;;;;;;;13.80;8.68;;;;;;;;;;4985439;28;20138;-81
2021/08/20 14:04:18;;;;;;;12.75;8.88;;;;;;;;;;4992993;28;20110;-80
2021/08/20 14:06:44;;;;;;;14.85;8.98;;;;;;;;;;4976683;28;20425;-80
2021/08/20 14:09:09;;;;;;;32.00;10.00;;;;;;;;;;4977676;28;20034;-81
2021/08/20 14:11:36;;;;;;;18.38;9.05;;;;;;;;;;4977446;28;20038;-80
2021/08/20 14:14:02;;;;;;;11.73;8.57;;;;;;;;;;4977076;28;20162;-80
2021/08/20 14:16:27;;;;;;;20.70;9.93;;;;;;;;;;4976580;28;20039;-80
2021/08/20 14:18:53;;;;;;;13.35;8.88;;;;;;;;;;4983085;28;20101;-80
2021/08/20 14:21:19;;;;;;;14.18;9.00;;;;;;;;;;4995968;28;20085;-81
2021/08/20 14:23:45;;;;;;;13.23;9.65;;;;;;;;;;4996034;28;20030;-81
2021/08/20 14:26:10;;;;;;;21.33;9.60;;;;;;;;;;4986366;28;20061;-80
2021/08/20 14:28:36;;;;;;;21.33;9.52;;;;;;;;;;4976496;28;20034;-81
2021/08/20 14:31:02;;;;;;;17.73;8.88;;;;;;;;;;5009400;28;20084;-80